Time;durP1;ratioP1;P1;durP2;ratioP2;P2;SDS_P1;SDS_P2;PMS_P1;PMS_P2;Temp;Humidity;BMP_temperature;BMP_pressure;BME280_temperature;BME280_humidity;BME280_pressure;Samples;Min_cycle;Max_cycle;Signal;HPM_P1;HPM_P2
2022/10/11 00:00:16;;;;;;;18.60;12.68;;;;;;;15.09;64.86;100210.44;5041550;28;20037;-68
2022/10/11 00:02:41;;;;;;;24.58;13.32;;;;;;;15.11;64.81;100211.72;5051936;28;20033;-68
2022/10/11 00:05:08;;;;;;;20.08;13.65;;;;;;;15.10;65.27;100207.25;5044349;28;20025;-68
2022/10/11 00:07:35;;;;;;;25.25;13.20;;;;;;;15.11;65.17;100208.91;5048165;28;20029;-68
2022/10/11 00:10:01;;;;;;;20.02;12.50;;;;;;;15.11;65.99;100213.72;5036162;28;20394;-68
2022/10/11 00:12:26;;;;;;;23.38;14.02;;;;;;;15.21;65.24;100210.47;5033165;28;20068;-68
2022/10/11 00:14:51;;;;;;;22.05;11.98;;;;;;;15.25;65.05;100214.22;5038266;28;20438;-68
2022/10/11 00:17:17;;;;;;;20.08;12.88;;;;;;;15.37;64.31;100210.59;5051574;28;20111;-68
2022/10/11 00:19:42;;;;;;;25.67;12.48;;;;;;;15.41;64.24;100210.72;5052815;28;20029;-68
2022/10/11 00:22:08;;;;;;;23.27;12.30;;;;;;;15.39;64.28;100204.63;5052717;28;20025;-68
2022/10/11 00:24:33;;;;;;;22.80;11.82;;;;;;;15.39;64.73;100207.44;5052856;28;20021;-68
2022/10/11 00:26:59;;;;;;;20.33;11.30;;;;;;;15.36;64.43;100205.31;5049872;28;20033;-68
2022/10/11 00:29:25;;;;;;;20.30;11.98;;;;;;;15.36;64.55;100199.69;5050109;28;20091;-68
2022/10/11 00:31:50;;;;;;;24.40;13.77;;;;;;;15.24;64.89;100190.03;5052594;28;20379;-68
2022/10/11 00:34:16;;;;;;;20.42;12.50;;;;;;;15.13;65.20;100200.91;5032610;28;20040;-68
2022/10/11 00:36:43;;;;;;;21.17;12.40;;;;;;;15.08;65.43;100194.69;5042502;28;20029;-68
2022/10/11 00:39:08;;;;;;;17.15;11.70;;;;;;;14.82;66.39;100193.78;5051313;28;20029;-68
2022/10/11 00:41:34;;;;;;;18.63;11.73;;;;;;;14.32;67.98;100190.72;5052595;28;20085;-68
2022/10/11 00:44:23;;;;;;;22.75;12.52;;;;;;;14.48;68.16;100186.44;5052318;28;20029;-68
2022/10/11 00:47:20;;;;;;;17.85;11.38;;;;;;;14.55;68.03;100197.97;5052140;28;20550;-68
2022/10/11 00:49:59;;;;;;;18.40;11.77;;;;;;;14.53;68.29;100189.06;5051933;28;20048;-68
2022/10/11 00:52:39;;;;;;;20.80;12.38;;;;;;;14.62;67.90;100187.00;5049024;28;20107;-68
2022/10/11 00:55:08;;;;;;;17.15;12.38;;;;;;;14.47;68.33;100182.81;5032356;28;20025;-68
2022/10/11 00:57:37;;;;;;;19.73;11.60;;;;;;;14.18;70.12;100185.34;5032325;28;20027;-68
2022/10/11 01:00:08;;;;;;;16.02;11.43;;;;;;;14.25;70.14;100186.81;5032261;28;20044;-68
2022/10/11 01:02:33;;;;;;;23.30;11.23;;;;;;;14.17;70.14;100180.91;5033676;28;20099;-68
2022/10/11 01:05:00;;;;;;;17.25;11.52;;;;;;;14.18;70.71;100176.91;5051036;28;20406;-68
2022/10/11 01:07:30;;;;;;;16.55;10.60;;;;;;;14.05;71.67;100172.38;5051213;28;20040;-68
2022/10/11 01:09:56;;;;;;;16.67;12.77;;;;;;;14.18;70.83;100174.09;5051836;28;20519;-68
2022/10/11 01:12:24;;;;;;;19.00;11.10;;;;;;;14.14;71.83;100173.16;5052041;28;20025;-68
2022/10/11 01:14:55;;;;;;;21.63;12.07;;;;;;;14.03;73.39;100174.72;5050618;28;20067;-68
2022/10/11 01:17:39;;;;;;;18.55;12.48;;;;;;;13.92;74.80;100163.03;5051831;28;20487;-68
2022/10/11 01:20:30;;;;;;;17.50;12.73;;;;;;;13.84;74.96;100163.94;5051726;28;20557;-68
2022/10/11 01:23:22;;;;;;;19.40;12.88;;;;;;;13.90;75.13;100154.13;5051754;28;20032;-68
2022/10/11 01:26:08;;;;;;;20.73;11.85;;;;;;;13.96;74.67;100151.94;5050596;28;20037;-67
2022/10/11 01:29:00;;;;;;;23.08;13.77;;;;;;;13.89;75.98;100150.50;5047519;28;20032;-68
2022/10/11 01:31:44;;;;;;;22.65;13.48;;;;;;;13.82;76.18;100146.56;5051554;28;20075;-68
2022/10/11 01:34:34;;;;;;;33.22;14.20;;;;;;;13.96;75.59;100146.31;5051598;28;20150;-68
2022/10/11 01:37:28;;;;;;;22.95;13.75;;;;;;;13.92;75.75;100153.78;5051475;28;20097;-68
2022/10/11 01:40:03;;;;;;;20.17;13.70;;;;;;;14.12;74.96;100152.16;5050393;28;20036;-68
2022/10/11 01:42:29;;;;;;;22.45;13.57;;;;;;;14.06;75.13;100140.28;5051353;28;20559;-68
2022/10/11 01:44:57;;;;;;;25.10;14.85;;;;;;;14.13;74.93;100146.19;5051230;28;20131;-68
2022/10/11 01:47:24;;;;;;;28.48;15.75;;;;;;;13.97;75.29;100151.59;5050418;28;20538;-68
2022/10/11 01:49:58;;;;;;;25.02;15.55;;;;;;;14.00;74.57;100145.28;5051384;28;20100;-68
2022/10/11 01:52:27;;;;;;;26.90;16.67;;;;;;;14.11;72.68;100140.06;5050250;28;20053;-67
2022/10/11 01:55:00;;;;;;;35.28;17.20;;;;;;;14.07;72.71;100141.13;5051318;28;20020;-68
2022/10/11 01:57:42;;;;;;;22.05;15.07;;;;;;;14.08;72.24;100140.75;5051286;28;20025;-68
2022/10/11 02:00:54;;;;;;;28.02;17.17;;;;;;;14.26;70.95;100137.81;5050018;28;20464;-68
2022/10/11 02:03:55;;;;;;;28.17;17.63;;;;;;;14.41;70.11;100147.59;5048334;28;20037;-68
2022/10/11 02:06:30;;;;;;;38.92;17.65;;;;;;;14.41;69.83;100145.63;5030824;28;20112;-68
2022/10/11 02:09:24;;;;;;;34.03;19.27;;;;;;;14.35;69.91;100146.19;5031079;28;20045;-68
2022/10/11 02:11:54;;;;;;;27.83;18.60;;;;;;;14.38;69.70;100149.13;5031002;28;20108;-68
2022/10/11 02:14:25;;;;;;;30.10;19.17;;;;;;;13.94;70.62;100145.81;5030805;28;20025;-67
2022/10/11 02:16:56;;;;;;;;;;;;;;;13.94;70.44;100140.19;5049908;28;20029;-68
2022/10/11 02:19:28;;;;;;;29.48;18.00;;;;;;;13.74;70.93;100137.84;5055188;28;19909;-68
2022/10/11 02:22:00;;;;;;;28.52;18.88;;;;;;;13.69;71.12;100140.03;5054989;28;20056;-68
2022/10/11 02:24:32;;;;;;;27.23;19.00;;;;;;;13.73;70.68;100132.56;5055159;28;20028;-68
2022/10/11 02:27:00;;;;;;;26.05;18.90;;;;;;;13.79;70.45;100131.22;5053254;28;20529;-68
2022/10/11 02:29:28;;;;;;;25.60;18.85;;;;;;;13.70;70.54;100134.09;5053673;28;20095;-68
2022/10/11 02:31:57;;;;;;;28.33;18.05;;;;;;;13.66;70.84;100141.53;5053500;28;20111;-68
2022/10/11 02:34:29;;;;;;;35.13;20.50;;;;;;;13.72;70.64;100140.19;5053593;28;20025;-68
2022/10/11 02:37:39;;;;;;;26.10;18.88;;;;;;;13.64;70.66;100143.06;5054728;28;20025;-68
2022/10/11 02:40:22;;;;;;;;;;;;;;;13.64;70.86;100140.25;5050688;28;20039;-68
2022/10/11 02:42:57;;;;;;;33.75;21.52;;;;;;;13.39;71.92;100142.78;5046265;28;20422;-68
2022/10/11 02:45:29;;;;;;;33.83;21.90;;;;;;;13.37;71.92;100133.88;5033862;28;20076;-68
2022/10/11 02:47:56;;;;;;;35.33;23.65;;;;;;;13.29;72.59;100135.56;5034662;28;20124;-68
2022/10/11 02:50:22;;;;;;;34.10;23.52;;;;;;;13.31;72.59;100147.28;5034785;28;20087;-68
2022/10/11 02:52:48;;;;;;;33.42;23.42;;;;;;;13.38;71.99;100144.78;5045287;28;20495;-68
2022/10/11 02:55:13;;;;;;;31.85;23.02;;;;;;;13.55;71.54;100146.72;5051115;28;20036;-68
2022/10/11 02:57:38;;;;;;;32.63;21.15;;;;;;;13.59;71.32;100142.06;5054348;28;20517;-68
2022/10/11 03:00:05;;;;;;;32.85;21.92;;;;;;;13.50;71.68;100141.28;5054465;28;20021;-68
2022/10/11 03:02:31;;;;;;;33.35;22.75;;;;;;;13.37;72.17;100134.72;5052970;28;20029;-68
2022/10/11 03:04:56;;;;;;;39.60;22.85;;;;;;;13.38;72.58;100129.91;5053115;28;20040;-68
2022/10/11 03:07:22;;;;;;;37.20;20.98;;;;;;;13.50;71.67;100137.66;5052741;28;20028;-68
2022/10/11 03:09:47;;;;;;;36.55;22.45;;;;;;;13.45;72.34;100135.88;5054129;28;20059;-68
2022/10/11 03:12:13;;;;;;;33.67;21.30;;;;;;;13.39;72.26;100138.00;5054055;28;20025;-68
2022/10/11 03:14:38;;;;;;;32.90;22.15;;;;;;;13.31;72.43;100122.84;5054248;28;20025;-68
2022/10/11 03:17:04;;;;;;;28.90;21.27;;;;;;;13.39;72.11;100125.94;5052760;28;20029;-68
2022/10/11 03:19:29;;;;;;;29.98;19.92;;;;;;;13.41;72.23;100130.06;5054050;28;20123;-68
2022/10/11 03:21:55;;;;;;;32.22;21.02;;;;;;;13.34;72.05;100124.97;5053917;28;20025;-68
2022/10/11 03:24:20;;;;;;;27.80;19.15;;;;;;;13.35;72.12;100123.00;5052907;28;20407;-68
2022/10/11 03:26:46;;;;;;;34.15;20.77;;;;;;;13.45;71.61;100124.63;5052534;28;20083;-68
2022/10/11 03:29:11;;;;;;;32.47;21.05;;;;;;;13.44;71.60;100120.97;5039370;28;20025;-67
2022/10/11 03:31:37;;;;;;;35.63;19.98;;;;;;;13.33;71.92;100117.69;5033887;28;20504;-68
2022/10/11 03:34:02;;;;;;;38.75;22.55;;;;;;;13.19;72.24;100122.72;5033824;28;20450;-68
2022/10/11 03:36:27;;;;;;;32.00;20.27;;;;;;;13.03;73.38;100122.47;5033770;28;20511;-68
2022/10/11 03:38:53;;;;;;;32.70;20.95;;;;;;;12.72;74.89;100124.38;5043715;28;20411;-68
2022/10/11 03:41:18;;;;;;;31.75;21.30;;;;;;;12.71;75.00;100111.50;5053610;28;20017;-68
2022/10/11 03:43:44;;;;;;;31.65;21.27;;;;;;;12.69;75.53;100119.44;5053422;28;20407;-68
2022/10/11 03:46:09;;;;;;;32.17;20.35;;;;;;;12.77;75.19;100124.19;5053454;28;20044;-68
2022/10/11 03:48:35;;;;;;;35.00;22.85;;;;;;;12.78;75.16;100120.19;5052642;28;20027;-68
2022/10/11 03:51:00;;;;;;;30.60;20.77;;;;;;;12.69;75.42;100127.84;5053362;28;20083;-68
2022/10/11 03:53:26;;;;;;;33.33;20.65;;;;;;;12.93;74.41;100115.22;5053460;28;20518;-68
2022/10/11 03:55:53;;;;;;;32.17;20.20;;;;;;;12.95;74.40;100112.91;5053306;28;20498;-68
2022/10/11 03:58:19;;;;;;;25.90;19.90;;;;;;;13.06;73.90;100108.56;5052421;28;20060;-68
2022/10/11 04:00:44;;;;;;;32.97;19.27;;;;;;;13.19;73.17;100098.25;5041954;28;20049;-68
2022/10/11 04:03:10;;;;;;;29.50;19.27;;;;;;;13.31;72.16;100097.56;5038184;28;20029;-68
2022/10/11 04:05:35;;;;;;;35.15;19.23;;;;;;;13.46;71.50;100101.81;5053176;28;20032;-68
2022/10/11 04:08:01;;;;;;;33.97;18.52;;;;;;;13.48;70.82;100107.06;5051594;28;20404;-68
2022/10/11 04:10:26;;;;;;;33.50;19.38;;;;;;;13.53;70.60;100104.09;5053237;28;20040;-67
2022/10/11 04:12:51;;;;;;;44.75;20.70;;;;;;;13.54;70.19;100097.31;5051830;28;20549;-67
2022/10/11 04:15:17;;;;;;;45.20;20.50;;;;;;;13.61;69.37;100106.00;5052986;28;20056;-68
2022/10/11 04:17:42;;;;;;;42.97;22.17;;;;;;;13.62;69.32;100118.09;5050538;28;20028;-68
2022/10/11 04:20:08;;;;;;;43.10;20.73;;;;;;;13.63;68.97;100111.28;5033550;28;20032;-68
2022/10/11 04:22:34;;;;;;;70.85;21.98;;;;;;;13.65;69.54;100106.16;5032988;28;20400;-68
2022/10/11 04:25:00;;;;;;;36.30;21.13;;;;;;;13.66;69.46;100109.78;5041780;28;20021;-68
2022/10/11 04:27:28;;;;;;;48.65;23.10;;;;;;;13.58;69.49;100112.31;5046014;28;20040;-68
2022/10/11 04:29:54;;;;;;;36.47;20.20;;;;;;;13.54;69.67;100111.34;5032820;28;20557;-68
2022/10/11 04:32:20;;;;;;;41.92;21.30;;;;;;;13.47;70.15;100109.06;5032701;28;20112;-68
2022/10/11 04:34:45;;;;;;;44.33;20.60;;;;;;;13.57;70.15;100115.44;5032711;28;20024;-68
2022/10/11 04:37:11;;;;;;;35.90;20.40;;;;;;;13.52;69.91;100118.47;5044940;28;20419;-68
2022/10/11 04:39:37;;;;;;;35.05;19.52;;;;;;;13.43;70.65;100115.69;5052258;28;20035;-67
2022/10/11 04:42:03;;;;;;;33.13;19.88;;;;;;;13.30;70.93;100121.19;5052594;28;20029;-67
2022/10/11 04:44:29;;;;;;;33.35;19.58;;;;;;;13.21;71.53;100109.16;5052462;28;20027;-67
2022/10/11 04:46:54;;;;;;;33.55;19.88;;;;;;;12.85;73.22;100124.50;5045267;28;20033;-69
2022/10/11 04:49:20;;;;;;;31.42;21.33;;;;;;;12.74;74.01;100124.84;5048590;28;20033;-69
2022/10/11 04:51:45;;;;;;;43.67;20.85;;;;;;;12.90;73.45;100119.53;5045997;28;20021;-70
2022/10/11 04:54:11;;;;;;;30.92;19.80;;;;;;;12.97;73.26;100116.19;5029860;28;20064;-69
2022/10/11 04:56:36;;;;;;;62.40;21.77;;;;;;;13.03;72.93;100122.47;5029749;28;20079;-67
2022/10/11 04:59:02;;;;;;;65.63;21.42;;;;;;;13.08;72.58;100116.66;5028776;28;20576;-68
2022/10/11 05:01:27;;;;;;;52.28;21.80;;;;;;;13.06;72.83;100113.34;5042046;28;20013;-68
2022/10/11 05:03:53;;;;;;;53.50;20.85;;;;;;;13.14;72.84;100114.47;5050023;28;20021;-68
2022/10/11 05:06:18;;;;;;;46.78;20.67;;;;;;;13.19;72.50;100112.31;5052636;28;20032;-68
2022/10/11 05:08:44;;;;;;;33.50;20.50;;;;;;;13.23;71.98;100122.88;5051424;28;20060;-68
2022/10/11 05:11:12;;;;;;;40.80;21.73;;;;;;;13.02;72.39;100113.19;5051869;28;20016;-68
2022/10/11 05:13:38;;;;;;;40.10;20.98;;;;;;;13.19;71.76;100103.88;5051769;28;20028;-68
2022/10/11 05:16:04;;;;;;;40.78;21.85;;;;;;;13.27;71.40;100110.66;5050626;28;20021;-67
2022/10/11 05:18:29;;;;;;;38.45;23.50;;;;;;;13.24;71.83;100111.28;5051771;28;20120;-68
2022/10/11 05:21:04;;;;;;;41.47;24.05;;;;;;;13.11;72.70;100106.72;5051745;28;20083;-68
2022/10/11 05:23:31;;;;;;;39.25;24.70;;;;;;;13.27;72.31;100107.84;5051578;28;20112;-68
2022/10/11 05:25:57;;;;;;;48.05;25.63;;;;;;;13.19;72.56;100106.69;5047845;28;20135;-68
2022/10/11 05:28:22;;;;;;;46.00;26.15;;;;;;;13.27;72.70;100109.81;5051480;28;20031;-68
2022/10/11 05:30:48;;;;;;;56.90;26.65;;;;;;;13.42;71.93;100103.59;5051550;28;20100;-68
2022/10/11 05:33:13;;;;;;;46.67;26.15;;;;;;;13.45;72.09;100113.38;5051422;28;20013;-68
2022/10/11 05:35:39;;;;;;;40.95;24.65;;;;;;;13.51;72.20;100112.00;5051452;28;20611;-68
2022/10/11 05:38:04;;;;;;;38.83;25.88;;;;;;;13.51;72.23;100122.44;5039153;28;20074;-68
2022/10/11 05:40:30;;;;;;;42.58;27.10;;;;;;;13.42;72.55;100117.66;5051237;28;20105;-67
2022/10/11 05:42:55;;;;;;;48.40;27.88;;;;;;;13.51;72.73;100131.69;5051386;28;20403;-68
2022/10/11 05:45:21;;;;;;;50.13;25.67;;;;;;;13.54;72.71;100119.78;5046293;28;20099;-68
2022/10/11 05:47:46;;;;;;;43.95;26.65;;;;;;;13.59;72.49;100124.38;5031298;28;20022;-67
2022/10/11 05:50:12;;;;;;;38.78;26.88;;;;;;;13.71;71.51;100129.25;5037626;28;20446;-68
2022/10/11 05:52:37;;;;;;;41.85;27.58;;;;;;;13.76;71.56;100131.91;5051262;28;20021;-68
2022/10/11 05:55:03;;;;;;;42.40;27.63;;;;;;;13.80;72.16;100130.03;5044601;28;20021;-68
2022/10/11 05:57:29;;;;;;;47.38;25.70;;;;;;;13.55;72.96;100135.47;5031236;28;20033;-67
2022/10/11 05:59:54;;;;;;;55.65;27.65;;;;;;;13.61;72.96;100139.72;5031364;28;20025;-68
2022/10/11 06:02:20;;;;;;;38.70;22.67;;;;;;;13.40;74.29;100136.03;5040003;28;20024;-68
2022/10/11 06:04:45;;;;;;;38.88;22.05;;;;;;;13.31;74.67;100141.66;5044839;28;20017;-68
2022/10/11 06:07:11;;;;;;;36.03;22.20;;;;;;;13.36;74.96;100137.84;5049860;28;20032;-68
2022/10/11 06:09:36;;;;;;;40.40;23.00;;;;;;;13.39;74.99;100132.38;5038382;28;20049;-68
2022/10/11 06:12:02;;;;;;;38.90;23.77;;;;;;;13.55;74.33;100138.28;5051386;28;20083;-68
2022/10/11 06:14:28;;;;;;;33.47;21.70;;;;;;;13.40;75.25;100128.41;5035810;28;20022;-68
2022/10/11 06:16:53;;;;;;;37.25;22.38;;;;;;;13.48;74.98;100140.78;5034266;28;20562;-68
2022/10/11 06:19:18;;;;;;;28.55;20.10;;;;;;;13.54;74.45;100139.47;5036259;28;20031;-68
2022/10/11 06:21:45;;;;;;;32.75;20.63;;;;;;;13.63;74.36;100145.03;5045228;28;20036;-67
2022/10/11 06:24:11;;;;;;;32.47;20.73;;;;;;;13.71;74.55;100146.97;5039533;28;20025;-67
2022/10/11 06:26:37;;;;;;;29.55;19.83;;;;;;;13.83;73.96;100146.22;5035030;28;20083;-68
2022/10/11 06:29:03;;;;;;;38.78;20.83;;;;;;;13.68;74.77;100152.44;5034616;28;20025;-68
2022/10/11 06:31:29;;;;;;;32.75;21.95;;;;;;;13.96;73.61;100151.94;5039543;28;20062;-67
2022/10/11 06:33:55;;;;;;;30.73;18.92;;;;;;;14.02;73.99;100159.81;5029299;28;20022;-68
2022/10/11 06:36:20;;;;;;;30.90;20.17;;;;;;;14.09;74.60;100161.28;5035397;28;20029;-68
2022/10/11 06:38:46;;;;;;;30.40;19.70;;;;;;;13.96;74.97;100149.13;5037957;28;20025;-68
2022/10/11 06:41:16;;;;;;;36.72;21.83;;;;;;;14.15;74.79;100165.53;5030399;28;20033;-68
2022/10/11 06:43:41;;;;;;;31.90;19.48;;;;;;;14.16;74.84;100155.91;5030918;28;20030;-68
2022/10/11 06:46:07;;;;;;;33.22;20.45;;;;;;;14.26;74.80;100149.88;5034151;28;20250;-68
2022/10/11 06:48:33;;;;;;;29.80;18.45;;;;;;;14.38;74.11;100151.94;5034613;28;20111;-68
2022/10/11 06:50:59;;;;;;;31.23;19.88;;;;;;;14.47;74.22;100151.84;5046921;28;20569;-68
2022/10/11 06:53:24;;;;;;;57.35;23.13;;;;;;;14.50;74.51;100151.16;5034706;28;20472;-69
2022/10/11 06:55:50;;;;;;;57.67;20.85;;;;;;;14.56;74.35;100152.59;5042939;28;20032;-69
2022/10/11 06:58:15;;;;;;;41.80;20.92;;;;;;;14.56;74.45;100157.41;5041724;28;20055;-69
2022/10/11 07:00:40;;;;;;;32.00;20.20;;;;;;;14.66;73.86;100156.97;5038835;28;20578;-68
2022/10/11 07:03:07;;;;;;;35.17;19.45;;;;;;;14.89;73.75;100153.81;5046138;28;20450;-69
2022/10/11 07:05:33;;;;;;;26.55;18.38;;;;;;;14.86;72.87;100144.03;5052250;28;20033;-69
2022/10/11 07:07:59;;;;;;;30.15;18.25;;;;;;;14.91;72.93;100148.63;5042913;28;20522;-69
2022/10/11 07:10:25;;;;;;;31.85;19.92;;;;;;;14.88;73.97;100152.97;5040394;28;20029;-70
2022/10/11 07:12:50;;;;;;;42.45;18.98;;;;;;;14.97;73.03;100147.25;5044654;28;20034;-68
2022/10/11 07:15:16;;;;;;;32.03;18.60;;;;;;;14.93;72.85;100143.47;5044247;28;20025;-71
2022/10/11 07:17:41;;;;;;;34.58;18.98;;;;;;;15.18;71.69;100153.97;5054445;28;20028;-70
2022/10/11 07:20:08;;;;;;;27.63;18.80;;;;;;;14.93;73.04;100156.75;5047119;28;20422;-69
2022/10/11 07:22:34;;;;;;;60.15;18.95;;;;;;;14.82;73.84;100157.19;5054905;28;20115;-69
2022/10/11 07:24:59;;;;;;;29.95;18.88;;;;;;;14.96;72.43;100161.69;5046530;28;20455;-70
2022/10/11 07:27:24;;;;;;;27.25;19.08;;;;;;;14.90;72.82;100157.41;5044193;28;20047;-68
2022/10/11 07:29:50;;;;;;;37.72;21.02;;;;;;;15.08;72.56;100153.25;5052728;28;20033;-68
2022/10/11 07:32:15;;;;;;;37.50;20.35;;;;;;;15.10;71.94;100150.09;5054468;28;20035;-69
2022/10/11 07:34:41;;;;;;;35.03;21.95;;;;;;;14.80;72.76;100141.81;5054186;28;20035;-69
2022/10/11 07:37:07;;;;;;;35.17;21.73;;;;;;;14.94;73.02;100141.50;5049074;28;20049;-68
2022/10/11 07:39:33;;;;;;;35.70;22.63;;;;;;;14.98;72.95;100148.06;5034594;28;20025;-69
2022/10/11 07:41:58;;;;;;;41.38;22.95;;;;;;;15.15;71.80;100136.63;5033999;28;20052;-68
2022/10/11 07:44:24;;;;;;;32.65;23.35;;;;;;;15.23;71.99;100148.09;5048113;28;20111;-69
2022/10/11 07:46:49;;;;;;;37.25;24.75;;;;;;;15.20;71.61;100138.34;5050226;28;20083;-69
2022/10/11 07:49:15;;;;;;;63.30;33.78;;;;;;;15.32;71.92;100142.34;5047407;28;20443;-70
2022/10/11 07:51:40;;;;;;;347.23;142.65;;;;;;;15.59;70.87;100138.03;5046984;28;20033;-72
2022/10/11 07:54:06;;;;;;;62.63;34.25;;;;;;;15.76;70.49;100147.44;5054036;28;20353;-70
2022/10/11 07:56:31;;;;;;;103.30;47.78;;;;;;;15.90;69.38;100141.44;5053868;28;20392;-70
2022/10/11 07:59:00;;;;;;;50.70;25.65;;;;;;;16.11;68.41;100144.91;5050223;28;20028;-69
2022/10/11 08:01:27;;;;;;;46.97;26.33;;;;;;;16.30;67.87;100149.13;5038643;28;20522;-69
2022/10/11 08:03:53;;;;;;;216.35;120.53;;;;;;;16.42;67.66;100146.25;5041314;28;20036;-69
2022/10/11 08:06:21;;;;;;;52.85;29.35;;;;;;;16.29;66.57;100150.31;5033824;28;20104;-69
2022/10/11 08:08:47;;;;;;;42.67;24.08;;;;;;;16.34;66.12;100141.56;5033505;28;20112;-69
2022/10/11 08:11:39;;;;;;;31.88;23.23;;;;;;;16.37;66.47;100146.50;5040693;28;20036;-69
2022/10/11 08:14:07;;;;;;;43.28;24.58;;;;;;;16.31;66.94;100145.13;5051888;28;20412;-69
2022/10/11 08:16:34;;;;;;;37.35;25.35;;;;;;;16.28;66.56;100143.81;5053463;28;20078;-69
2022/10/11 08:19:01;;;;;;;33.28;23.67;;;;;;;16.54;65.54;100136.09;5053610;28;20468;-68
2022/10/11 08:21:27;;;;;;;44.10;26.17;;;;;;;16.49;66.13;100141.97;5046203;28;20423;-69
2022/10/11 08:23:53;;;;;;;41.75;26.05;;;;;;;16.45;66.26;100138.25;5053272;28;20025;-69
2022/10/11 08:26:19;;;;;;;45.20;26.83;;;;;;;16.68;65.10;100141.31;5033378;28;20416;-68
2022/10/11 08:28:44;;;;;;;48.60;27.63;;;;;;;16.62;65.53;100143.56;5033599;28;20022;-69
2022/10/11 08:31:15;;;;;;;37.75;24.98;;;;;;;16.64;65.45;100131.91;5033611;28;20021;-69
2022/10/11 08:33:40;;;;;;;38.47;23.40;;;;;;;16.70;65.42;100134.13;5041298;28;20031;-69
2022/10/11 08:36:07;;;;;;;39.92;26.88;;;;;;;16.75;64.84;100130.22;5053109;28;20448;-68
2022/10/11 08:38:35;;;;;;;43.92;27.38;;;;;;;16.79;64.02;100128.31;5035941;28;20448;-68
2022/10/11 08:41:01;;;;;;;85.15;40.45;;;;;;;16.89;63.94;100124.13;5037016;28;20029;-68
2022/10/11 08:43:51;;;;;;;57.15;36.40;;;;;;;16.72;63.66;100128.13;5044741;28;20041;-69
2022/10/11 08:46:25;;;;;;;337.27;168.15;;;;;;;16.65;64.15;100131.56;5036417;28;20041;-69
2022/10/11 08:48:51;;;;;;;61.35;36.35;;;;;;;16.80;64.15;100144.06;5033325;28;20120;-68
2022/10/11 08:51:29;;;;;;;39.75;25.92;;;;;;;16.85;63.92;100148.63;5040031;28;20017;-68
2022/10/11 08:54:02;;;;;;;43.78;27.85;;;;;;;16.80;64.40;100148.91;5044390;28;20051;-68
2022/10/11 08:56:31;;;;;;;50.13;31.35;;;;;;;16.88;63.96;100141.44;5052142;28;20087;-68
2022/10/11 08:59:37;;;;;;;56.75;32.65;;;;;;;16.61;64.68;100130.63;5052225;28;20024;-68
2022/10/11 09:02:30;;;;;;;59.65;33.40;;;;;;;16.64;64.99;100126.28;5047257;28;20037;-68
2022/10/11 09:04:56;;;;;;;47.22;31.15;;;;;;;16.61;64.96;100133.44;5036513;28;20096;-70
2022/10/11 09:07:42;;;;;;;61.85;36.40;;;;;;;16.76;64.14;100122.53;5044994;28;20406;-71
2022/10/11 09:10:33;;;;;;;40.25;25.98;;;;;;;17.01;63.58;100125.25;5032135;28;20045;-71
2022/10/11 09:13:29;;;;;;;39.25;26.25;;;;;;;16.84;64.25;100122.41;5030719;28;20514;-71
2022/10/11 09:16:04;;;;;;;43.50;28.13;;;;;;;17.04;63.73;100114.06;5029438;28;20030;-72
2022/10/11 09:18:46;;;;;;;40.83;27.55;;;;;;;17.10;62.75;100111.78;5040182;28;20021;-70
2022/10/11 09:21:31;;;;;;;41.15;25.85;;;;;;;17.22;62.47;100110.88;5044403;28;20029;-70
2022/10/11 09:24:15;;;;;;;48.13;30.42;;;;;;;17.18;62.20;100119.25;5036548;28;20502;-69
2022/10/11 09:27:23;;;;;;;37.90;23.95;;;;;;;17.30;61.97;100114.72;5037953;28;20120;-70
2022/10/11 09:30:01;;;;;;;44.38;25.65;;;;;;;17.52;61.58;100119.72;5038742;28;20052;-70
2022/10/11 09:32:39;;;;;;;39.25;26.88;;;;;;;17.45;61.74;100127.19;5046873;28;20412;-69
2022/10/11 09:35:23;;;;;;;51.08;27.08;;;;;;;17.50;61.84;100122.09;5043346;28;20044;-71
2022/10/11 09:38:17;;;;;;;40.95;25.80;;;;;;;17.40;61.39;100120.63;5040194;28;20482;-68
2022/10/11 09:40:49;;;;;;;49.08;30.23;;;;;;;17.53;60.75;100115.69;5042174;28;20499;-69
2022/10/11 09:43:14;;;;;;;38.80;27.02;;;;;;;17.57;60.48;100120.59;5028737;28;20087;-69
2022/10/11 09:45:45;;;;;;;38.22;24.33;;;;;;;17.56;60.49;100102.00;5028915;28;20474;-69
2022/10/11 09:48:19;;;;;;;33.45;23.27;;;;;;;17.60;60.65;100114.22;5028794;28;20045;-69
2022/10/11 09:50:45;;;;;;;35.45;23.50;;;;;;;17.72;60.83;100096.31;5027227;28;20041;-69
2022/10/11 09:53:12;;;;;;;35.90;23.70;;;;;;;17.69;60.86;100097.88;5026819;28;20033;-69
2022/10/11 09:55:49;;;;;;;40.22;23.15;;;;;;;17.66;60.73;100093.75;5028610;28;20041;-69
2022/10/11 09:58:32;;;;;;;40.35;24.67;;;;;;;17.63;60.49;100094.50;5029914;28;20389;-69
2022/10/11 10:01:23;;;;;;;38.28;25.55;;;;;;;17.50;60.82;100096.63;5045652;28;20032;-69
2022/10/11 10:04:07;;;;;;;84.22;41.40;;;;;;;17.53;60.67;100087.41;5031782;28;20580;-68
2022/10/11 10:06:33;;;;;;;84.10;44.17;;;;;;;17.80;59.91;100087.63;5045028;28;20068;-68
2022/10/11 10:09:25;;;;;;;48.38;27.40;;;;;;;17.91;60.17;100087.84;5044956;28;20554;-68
2022/10/11 10:11:51;;;;;;;37.70;23.85;;;;;;;18.08;59.79;100085.81;5027196;28;20029;-67
2022/10/11 10:14:27;;;;;;;39.22;24.70;;;;;;;18.18;59.41;100078.75;5028554;28;20112;-69
2022/10/11 10:17:14;;;;;;;35.83;23.10;;;;;;;17.92;59.82;100066.88;5028817;28;20029;-70
2022/10/11 10:19:47;;;;;;;31.85;22.25;;;;;;;17.88;60.59;100056.66;5037867;28;20059;-70
2022/10/11 10:22:26;;;;;;;36.90;23.55;;;;;;;17.74;61.30;100062.81;5035212;28;20078;-70
2022/10/11 10:24:54;;;;;;;36.72;23.10;;;;;;;17.91;60.10;100058.75;5028949;28;20014;-69
2022/10/11 10:27:22;;;;;;;44.05;26.85;;;;;;;17.78;59.95;100061.72;5028263;28;20578;-68
2022/10/11 10:30:09;;;;;;;47.33;26.23;;;;;;;17.98;59.30;100060.91;5028433;28;20032;-70
2022/10/11 10:33:10;;;;;;;36.88;24.83;;;;;;;18.11;58.63;100062.44;5056963;28;20033;-70
2022/10/11 10:35:51;;;;;;;41.55;22.98;;;;;;;17.93;59.02;100054.34;5029700;28;20469;-68
2022/10/11 10:38:34;;;;;;;47.17;24.88;;;;;;;17.93;58.95;100050.69;5052190;28;20045;-70
2022/10/11 10:41:08;;;;;;;41.95;25.65;;;;;;;18.18;58.40;100047.59;5052174;28;20426;-70
2022/10/11 10:43:36;;;;;;;39.88;25.27;;;;;;;18.19;58.61;100046.41;5048484;28;20029;-69
2022/10/11 10:46:17;;;;;;;35.55;23.10;;;;;;;18.13;58.96;100042.25;5037296;28;20045;-71
2022/10/11 10:49:03;;;;;;;38.78;23.98;;;;;;;18.13;59.18;100050.75;5051944;28;20021;-70
2022/10/11 10:51:38;;;;;;;43.88;23.83;;;;;;;18.22;58.57;100051.31;5052098;28;20052;-70
2022/10/11 10:54:37;;;;;;;40.88;24.52;;;;;;;18.28;58.19;100049.00;5036565;28;20423;-69
2022/10/11 10:57:13;;;;;;;51.88;26.00;;;;;;;18.14;58.16;100053.19;5034954;28;20022;-69
2022/10/11 11:00:16;;;;;;;48.70;24.67;;;;;;;17.85;59.25;100046.06;5051015;28;20037;-69
2022/10/11 11:02:56;;;;;;;43.45;24.95;;;;;;;18.18;58.13;100039.94;5047190;28;20041;-68
2022/10/11 11:05:58;;;;;;;44.35;24.95;;;;;;;18.16;58.02;100039.50;5042328;28;20037;-67
2022/10/11 11:08:53;;;;;;;39.25;26.02;;;;;;;18.10;57.72;100033.31;5043047;28;20032;-68
2022/10/11 11:11:27;;;;;;;39.78;24.73;;;;;;;18.02;58.47;100025.84;5038704;28;20383;-69
2022/10/11 11:14:30;;;;;;;37.03;22.95;;;;;;;17.93;58.60;100028.91;5044606;28;20504;-68
2022/10/11 11:17:24;;;;;;;36.90;26.58;;;;;;;17.92;58.22;100018.78;5042363;28;20036;-70
2022/10/11 11:20:26;;;;;;;37.00;25.02;;;;;;;18.02;57.61;100013.69;5034824;28;20036;-67
2022/10/11 11:23:01;;;;;;;37.17;23.88;;;;;;;18.25;57.78;100019.44;5034912;28;20042;-67
2022/10/11 11:25:31;;;;;;;38.95;24.52;;;;;;;18.33;57.68;100012.72;5035148;28;20567;-68
2022/10/11 11:27:56;;;;;;;;;;;;;;;18.34;57.38;100010.72;5047640;28;20037;-69